Time;durP1;ratioP1;P1;durP2;ratioP2;P2;SDS_P1;SDS_P2;PMS_P1;PMS_P2;Temp;Humidity;BMP_temperature;BMP_pressure;BME280_temperature;BME280_humidity;BME280_pressure;Samples;Min_cycle;Max_cycle;Signal;HPM_P1;HPM_P2
2021/11/21 00:02:23;;;;;;;27.13;14.38;;;8.00;99.90;;;;;;5020480;28;20032;-84
2021/11/21 00:04:50;;;;;;;14.90;8.25;;;8.00;99.90;;;;;;5016744;28;20033;-84
2021/11/21 00:07:16;;;;;;;30.23;14.38;;;8.10;99.90;;;;;;5003980;28;20037;-84
2021/11/21 00:09:42;;;;;;;25.85;10.55;;;8.00;99.90;;;;;;5035711;28;20034;-84
2021/11/21 00:12:07;;;;;;;31.08;15.23;;;7.90;99.90;;;;;;5022225;28;20496;-84
2021/11/21 00:14:33;;;;;;;32.90;18.13;;;7.90;99.90;;;;;;5007956;28;20030;-84
2021/11/21 00:17:01;;;;;;;30.27;16.77;;;7.90;99.90;;;;;;4994279;28;20092;-84
2021/11/21 00:19:27;;;;;;;34.95;17.90;;;7.80;99.90;;;;;;5041030;28;20522;-84
2021/11/21 00:21:52;;;;;;;30.20;15.80;;;7.80;99.90;;;;;;5010228;28;20370;-84
2021/11/21 00:24:18;;;;;;;32.55;17.52;;;7.90;99.90;;;;;;5023473;28;20576;-84
2021/11/21 00:26:44;;;;;;;39.17;19.45;;;7.90;99.90;;;;;;5005543;28;20033;-84
2021/11/21 00:29:09;;;;;;;37.35;18.13;;;7.80;99.90;;;;;;5009931;28;20044;-84
2021/11/21 00:31:35;;;;;;;44.55;21.95;;;7.80;99.90;;;;;;5007875;28;20040;-84
2021/11/21 00:34:00;;;;;;;39.50;21.20;;;7.80;99.90;;;;;;5009751;28;20064;-84
2021/11/21 00:36:26;;;;;;;39.17;18.40;;;7.90;99.90;;;;;;4987445;28;20687;-85
2021/11/21 00:38:52;;;;;;;36.83;20.90;;;7.90;99.90;;;;;;5021745;28;20414;-84
2021/11/21 00:41:17;;;;;;;36.70;17.27;;;7.80;99.90;;;;;;5024866;28;20041;-84
2021/11/21 00:43:43;;;;;;;39.33;22.63;;;7.90;99.90;;;;;;5040763;28;20080;-85
2021/11/21 00:46:08;;;;;;;33.70;17.05;;;7.90;99.90;;;;;;5024595;28;20512;-85
2021/11/21 00:48:37;;;;;;;38.50;21.42;;;7.80;99.90;;;;;;5041119;28;20477;-84
2021/11/21 00:51:03;;;;;;;38.58;23.65;;;7.80;99.90;;;;;;4993631;28;20374;-84
2021/11/21 00:53:28;;;;;;;35.55;18.08;;;7.90;99.90;;;;;;4992050;28;20047;-84
2021/11/21 00:56:01;;;;;;;41.38;21.98;;;7.80;99.90;;;;;;5013071;28;20037;-85
2021/11/21 00:58:27;;;;;;;39.33;19.02;;;7.90;99.90;;;;;;5022230;28;20033;-85
2021/11/21 01:00:52;;;;;;;38.42;18.20;;;7.90;99.90;;;;;;5022714;28;20029;-85
2021/11/21 01:03:20;;;;;;;37.63;21.33;;;7.80;99.90;;;;;;5036064;28;20041;-85
2021/11/21 01:05:47;;;;;;;37.58;20.75;;;7.80;99.90;;;;;;5021604;28;20069;-85
2021/11/21 01:08:12;;;;;;;36.42;17.98;;;7.80;99.90;;;;;;5020619;28;20509;-85
2021/11/21 01:10:38;;;;;;;39.75;15.35;;;7.80;99.90;;;;;;5021110;28;20056;-84
2021/11/21 01:13:03;;;;;;;29.27;12.43;;;7.80;99.90;;;;;;5023035;28;20029;-84
2021/11/21 01:15:29;;;;;;;37.15;17.27;;;7.90;99.90;;;;;;5023331;28;20041;-84
2021/11/21 01:17:55;;;;;;;47.05;25.83;;;7.80;99.90;;;;;;5022683;28;20033;-85
2021/11/21 01:20:22;;;;;;;41.70;21.30;;;7.70;99.90;;;;;;5023257;28;20509;-84
2021/11/21 01:22:48;;;;;;;35.85;19.05;;;7.70;99.90;;;;;;5024140;28;20053;-84
2021/11/21 01:25:14;;;;;;;38.25;21.20;;;7.70;99.90;;;;;;5023152;28;20508;-84
2021/11/21 01:27:40;;;;;;;37.90;19.83;;;7.70;99.90;;;;;;5019788;28;20038;-85
2021/11/21 01:30:07;;;;;;;43.58;21.17;;;7.70;99.90;;;;;;5024384;28;20042;-84
2021/11/21 01:32:33;;;;;;;12.18;6.82;;;7.70;99.90;;;;;;4990825;28;20482;-84
2021/11/21 01:34:58;;;;;;;38.92;20.45;;;7.70;99.90;;;;;;4993446;28;20041;-84
2021/11/21 01:37:24;;;;;;;38.33;18.95;;;7.70;99.90;;;;;;5038363;28;20037;-84
2021/11/21 01:39:49;;;;;;;25.95;13.13;;;7.70;99.90;;;;;;5021539;28;20120;-84
2021/11/21 01:42:15;;;;;;;36.85;19.75;;;7.60;99.90;;;;;;5022363;28;20056;-84
2021/11/21 01:44:41;;;;;;;36.58;21.13;;;7.70;99.90;;;;;;5020732;28;20083;-84
2021/11/21 01:47:07;;;;;;;23.08;11.55;;;7.60;99.90;;;;;;5019164;28;20030;-84
2021/11/21 01:49:33;;;;;;;34.40;17.15;;;7.50;99.90;;;;;;4993344;28;20025;-84
2021/11/21 01:51:59;;;;;;;29.77;12.00;;;7.50;99.90;;;;;;5009435;28;20072;-84
2021/11/21 01:54:24;;;;;;;39.20;20.02;;;7.50;99.90;;;;;;5025003;28;20519;-84
2021/11/21 01:56:50;;;;;;;38.55;18.88;;;7.50;99.90;;;;;;5008414;28;20064;-84
2021/11/21 01:59:16;;;;;;;33.33;18.77;;;7.50;99.90;;;;;;5021775;28;20453;-84
2021/11/21 02:01:41;;;;;;;30.77;16.38;;;7.50;99.90;;;;;;5004162;28;20033;-84
2021/11/21 02:04:07;;;;;;;26.70;12.98;;;7.50;99.90;;;;;;5008963;28;20481;-84
2021/11/21 02:06:35;;;;;;;19.98;10.95;;;7.50;99.90;;;;;;5039420;28;20060;-84
2021/11/21 02:09:00;;;;;;;32.80;14.98;;;7.50;99.90;;;;;;5001131;28;20030;-85
2021/11/21 02:11:26;;;;;;;24.05;12.18;;;7.60;99.90;;;;;;5019630;28;20026;-84
2021/11/21 02:13:52;;;;;;;25.42;14.25;;;7.50;99.90;;;;;;5038301;28;20049;-84
2021/11/21 02:16:18;;;;;;;35.03;18.88;;;7.50;99.90;;;;;;5038765;28;20045;-85
2021/11/21 02:18:47;;;;;;;21.65;11.02;;;7.50;99.90;;;;;;5007496;28;20045;-85
2021/11/21 02:21:13;;;;;;;28.60;15.55;;;7.50;99.90;;;;;;5023175;28;20038;-85
2021/11/21 02:23:40;;;;;;;27.05;13.10;;;7.50;99.90;;;;;;4988327;28;20029;-85
2021/11/21 02:26:06;;;;;;;38.35;21.23;;;7.50;99.90;;;;;;5007610;28;20571;-85
2021/11/21 02:28:33;;;;;;;29.10;15.43;;;7.50;99.90;;;;;;5008735;28;20029;-85
2021/11/21 02:30:58;;;;;;;23.92;13.25;;;7.50;99.90;;;;;;4995729;28;20485;-85
2021/11/21 02:33:24;;;;;;;22.52;10.13;;;7.50;99.90;;;;;;5020599;28;20045;-84
2021/11/21 02:35:56;;;;;;;29.45;15.93;;;7.50;99.90;;;;;;5017163;28;20033;-84
2021/11/21 02:38:22;;;;;;;26.23;13.82;;;7.50;99.90;;;;;;5023364;28;20037;-84
2021/11/21 02:40:48;;;;;;;30.80;15.88;;;7.50;99.90;;;;;;5038096;28;20030;-84
2021/11/21 02:43:17;;;;;;;15.10;7.28;;;7.50;99.90;;;;;;5037596;28;20040;-85
2021/11/21 02:45:43;;;;;;;24.75;11.25;;;7.40;99.90;;;;;;5000920;28;20025;-84
2021/11/21 02:48:09;;;;;;;29.17;15.27;;;7.40;99.90;;;;;;5002435;28;20093;-85
2021/11/21 02:50:37;;;;;;;19.25;9.68;;;7.50;99.90;;;;;;5023700;28;20029;-84
2021/11/21 02:53:02;;;;;;;29.27;14.20;;;7.40;99.90;;;;;;5020620;28;20512;-85
2021/11/21 02:55:30;;;;;;;22.38;11.18;;;7.50;99.90;;;;;;5033865;28;20298;-85
2021/11/21 02:57:56;;;;;;;36.72;19.42;;;7.40;99.90;;;;;;5037764;28;20033;-85
2021/11/21 03:00:21;;;;;;;34.05;19.75;;;7.40;99.90;;;;;;5034632;28;20040;-85
2021/11/21 03:02:47;;;;;;;29.90;14.05;;;7.40;99.90;;;;;;5018222;28;20484;-84
2021/11/21 03:05:13;;;;;;;29.08;13.13;;;7.50;99.90;;;;;;5019575;28;20061;-84
2021/11/21 03:07:39;;;;;;;29.95;15.27;;;7.40;99.90;;;;;;5035367;28;20120;-84
2021/11/21 03:10:05;;;;;;;36.88;19.08;;;7.40;99.90;;;;;;5034338;28;20206;-85
2021/11/21 03:12:31;;;;;;;31.85;17.42;;;7.40;99.90;;;;;;5036137;28;20152;-84
2021/11/21 03:14:59;;;;;;;40.58;19.60;;;7.30;99.90;;;;;;5007496;28;20079;-84
2021/11/21 03:17:25;;;;;;;32.53;17.90;;;7.40;99.90;;;;;;5037359;28;20037;-84
2021/11/21 03:19:50;;;;;;;43.13;21.30;;;7.40;99.90;;;;;;5004069;28;20099;-84
2021/11/21 03:22:16;;;;;;;38.50;20.17;;;7.40;99.90;;;;;;5025414;28;20063;-84
2021/11/21 03:24:42;;;;;;;22.48;7.25;;;7.50;99.90;;;;;;4993709;28;20029;-84
2021/11/21 03:27:07;;;;;;;26.17;12.02;;;7.40;99.90;;;;;;5003414;28;20029;-84
2021/11/21 03:29:33;;;;;;;36.20;18.65;;;7.50;99.90;;;;;;5018231;28;20061;-84
2021/11/21 03:31:59;;;;;;;40.65;20.27;;;7.40;99.90;;;;;;5006906;28;20033;-84
2021/11/21 03:34:25;;;;;;;31.50;14.98;;;7.40;99.90;;;;;;5033433;28;20125;-84
2021/11/21 03:36:50;;;;;;;25.98;10.52;;;7.40;99.90;;;;;;5007067;28;20414;-84
2021/11/21 03:39:16;;;;;;;38.33;20.08;;;7.40;99.90;;;;;;5020563;28;20048;-84
2021/11/21 03:41:41;;;;;;;40.33;20.70;;;7.40;99.90;;;;;;5018087;28;20155;-84
2021/11/21 03:44:07;;;;;;;34.92;17.85;;;7.40;99.90;;;;;;5038890;28;20026;-84
2021/11/21 03:46:33;;;;;;;18.90;10.85;;;7.40;99.90;;;;;;4990206;28;20036;-84
2021/11/21 03:48:59;;;;;;;31.70;14.38;;;7.30;99.90;;;;;;5007086;28;20029;-84
2021/11/21 03:51:28;;;;;;;19.05;8.80;;;7.40;99.90;;;;;;5022078;28;20460;-84
2021/11/21 03:53:53;;;;;;;28.35;11.82;;;7.50;99.90;;;;;;5025881;28;20541;-85
2021/11/21 03:56:19;;;;;;;11.50;6.50;;;7.40;99.90;;;;;;5040725;28;20125;-84
2021/11/21 03:58:44;;;;;;;38.53;18.80;;;7.30;99.90;;;;;;5015116;28;20423;-84
2021/11/21 04:01:10;;;;;;;21.85;11.35;;;7.30;99.90;;;;;;5021459;28;20025;-84
2021/11/21 04:03:36;;;;;;;30.30;15.60;;;7.40;99.90;;;;;;5012072;28;20041;-84
2021/11/21 04:06:01;;;;;;;26.00;12.98;;;7.30;99.90;;;;;;5006956;28;20037;-84
2021/11/21 04:08:27;;;;;;;22.50;11.02;;;7.30;99.90;;;;;;5009683;28;20454;-83
2021/11/21 04:10:54;;;;;;;35.05;17.23;;;7.40;99.90;;;;;;5041200;28;20147;-84
2021/11/21 04:13:19;;;;;;;27.50;14.50;;;7.40;99.90;;;;;;5028957;28;20030;-84
2021/11/21 04:15:45;;;;;;;21.42;9.32;;;7.40;99.90;;;;;;5039556;28;20033;-84
2021/11/21 04:18:11;;;;;;;29.42;15.13;;;7.40;99.90;;;;;;5010831;28;20038;-84
2021/11/21 04:20:36;;;;;;;29.33;15.15;;;7.40;99.90;;;;;;5008929;28;20096;-84
2021/11/21 04:23:02;;;;;;;25.60;12.15;;;7.30;99.90;;;;;;5010215;28;20065;-84
2021/11/21 04:25:27;;;;;;;17.00;8.18;;;7.40;99.90;;;;;;5010620;28;20026;-84
2021/11/21 04:27:53;;;;;;;24.70;12.45;;;7.40;99.90;;;;;;5026479;28;20519;-84
2021/11/21 04:30:19;;;;;;;15.75;7.18;;;7.40;99.90;;;;;;5009680;28;20042;-84
2021/11/21 04:32:45;;;;;;;26.05;12.48;;;7.40;99.90;;;;;;5005114;28;20038;-84
2021/11/21 04:35:12;;;;;;;20.65;10.00;;;7.40;99.90;;;;;;5039113;28;20350;-84
2021/11/21 04:37:38;;;;;;;33.00;17.10;;;7.30;99.90;;;;;;4991140;28;20239;-84
2021/11/21 04:40:05;;;;;;;36.33;15.73;;;7.40;99.90;;;;;;5010288;28;20029;-84
2021/11/21 04:42:30;;;;;;;34.25;13.90;;;7.40;99.90;;;;;;5008818;28;20021;-84
2021/11/21 04:44:56;;;;;;;34.75;15.57;;;7.40;99.90;;;;;;4993184;28;20036;-84
2021/11/21 04:47:22;;;;;;;27.25;12.88;;;7.30;99.90;;;;;;5022921;28;20029;-84
2021/11/21 04:49:47;;;;;;;26.58;12.82;;;7.30;99.90;;;;;;5009963;28;20440;-84
2021/11/21 04:52:13;;;;;;;32.72;15.07;;;7.30;99.90;;;;;;5043444;28;20026;-84
2021/11/21 04:54:38;;;;;;;33.92;17.63;;;7.30;99.90;;;;;;5024945;28;20430;-84
2021/11/21 04:57:04;;;;;;;22.23;10.35;;;7.40;99.90;;;;;;5008984;28;20033;-84
2021/11/21 04:59:30;;;;;;;21.95;10.90;;;7.30;99.90;;;;;;5009489;28;20034;-84
2021/11/21 05:01:56;;;;;;;19.73;8.68;;;7.30;99.90;;;;;;5008624;28;20029;-84
2021/11/21 05:04:21;;;;;;;34.78;15.60;;;7.40;99.90;;;;;;5007462;28;20053;-84
2021/11/21 05:06:47;;;;;;;36.88;18.33;;;7.40;99.90;;;;;;5022932;28;20046;-84
2021/11/21 05:09:12;;;;;;;30.17;14.88;;;7.50;99.90;;;;;;5020602;28;20026;-84
2021/11/21 05:11:38;;;;;;;28.08;11.30;;;7.40;99.90;;;;;;5021427;28;20317;-84
2021/11/21 05:14:06;;;;;;;34.40;18.10;;;7.40;99.90;;;;;;5022828;28;20090;-84
2021/11/21 05:16:33;;;;;;;28.40;14.30;;;7.40;99.90;;;;;;4992283;28;20037;-84
2021/11/21 05:18:59;;;;;;;32.53;16.67;;;7.40;99.90;;;;;;5009231;28;20079;-84
2021/11/21 05:21:25;;;;;;;26.23;11.38;;;7.40;99.90;;;;;;5009436;28;20037;-84
2021/11/21 05:23:50;;;;;;;28.83;15.48;;;7.40;99.90;;;;;;5009417;28;20056;-84
2021/11/21 05:26:16;;;;;;;28.42;11.90;;;7.40;99.90;;;;;;5015030;28;20386;-84
2021/11/21 05:28:41;;;;;;;29.83;11.98;;;7.40;99.90;;;;;;5009284;28;20401;-84
2021/11/21 05:31:07;;;;;;;21.33;10.32;;;7.40;99.90;;;;;;5002790;28;20036;-84
2021/11/21 05:33:32;;;;;;;24.27;12.63;;;7.50;99.90;;;;;;4992945;28;20167;-85
2021/11/21 05:35:58;;;;;;;28.33;14.25;;;7.30;99.90;;;;;;4993100;28;20037;-85
2021/11/21 05:38:23;;;;;;;27.23;14.43;;;7.40;99.90;;;;;;5022019;28;20520;-84
2021/11/21 05:40:49;;;;;;;21.58;10.05;;;7.40;99.90;;;;;;5040608;28;20029;-85
2021/11/21 05:43:15;;;;;;;36.75;16.40;;;7.40;99.90;;;;;;5008910;28;20030;-85
2021/11/21 05:45:40;;;;;;;37.75;16.58;;;7.40;99.90;;;;;;5037531;28;20029;-84
2021/11/21 05:48:06;;;;;;;24.77;11.88;;;7.40;99.90;;;;;;5007149;28;20501;-84
2021/11/21 05:50:32;;;;;;;26.25;10.50;;;7.40;99.90;;;;;;5009144;28;20041;-84
2021/11/21 05:52:57;;;;;;;24.60;11.52;;;7.40;99.90;;;;;;5007703;28;20036;-85
2021/11/21 05:55:23;;;;;;;23.00;12.57;;;7.40;99.90;;;;;;5019901;28;20066;-85
2021/11/21 05:57:49;;;;;;;17.75;8.85;;;7.40;99.90;;;;;;5034742;28;20182;-84
2021/11/21 06:00:20;;;;;;;30.55;12.25;;;7.40;99.90;;;;;;5009442;28;20497;-84
2021/11/21 06:02:46;;;;;;;27.70;12.55;;;7.40;99.90;;;;;;5025962;28;20154;-84
2021/11/21 06:05:11;;;;;;;38.78;18.35;;;7.40;99.90;;;;;;4990932;28;20112;-84
2021/11/21 06:07:37;;;;;;;39.03;19.42;;;7.40;99.90;;;;;;5008981;28;20390;-84
2021/11/21 06:10:04;;;;;;;35.08;16.83;;;7.40;99.90;;;;;;5007184;28;20227;-83
2021/11/21 06:12:29;;;;;;;37.83;17.55;;;7.50;99.90;;;;;;5023168;28;20555;-84
2021/11/21 06:14:57;;;;;;;33.40;17.08;;;7.40;99.90;;;;;;5020436;28;20041;-85
2021/11/21 06:17:23;;;;;;;30.48;13.32;;;7.40;99.90;;;;;;5008338;28;20037;-84
2021/11/21 06:19:48;;;;;;;24.55;13.32;;;7.40;99.90;;;;;;5021131;28;20037;-84
2021/11/21 06:22:15;;;;;;;27.67;13.60;;;7.40;99.90;;;;;;4990531;28;20112;-84
2021/11/21 06:24:41;;;;;;;31.52;13.85;;;7.40;99.90;;;;;;4993249;28;20042;-84
2021/11/21 06:27:06;;;;;;;28.17;14.75;;;7.50;99.90;;;;;;5025401;28;20349;-84
2021/11/21 06:29:32;;;;;;;42.83;19.85;;;7.40;99.90;;;;;;4993351;28;20035;-84
2021/11/21 06:31:58;;;;;;;29.50;12.70;;;7.50;99.90;;;;;;5008617;28;20034;-84
2021/11/21 06:34:24;;;;;;;35.22;14.30;;;7.40;99.90;;;;;;5009080;28;20491;-84
2021/11/21 06:36:49;;;;;;;22.65;10.23;;;7.40;99.90;;;;;;5039724;28;20026;-84
2021/11/21 06:39:15;;;;;;;33.67;12.70;;;7.40;99.90;;;;;;5009287;28;20045;-83
2021/11/21 06:41:41;;;;;;;32.72;15.40;;;7.40;99.90;;;;;;5008026;28;20037;-84
2021/11/21 06:44:06;;;;;;;28.80;12.95;;;7.50;99.90;;;;;;5041830;28;20038;-84
2021/11/21 06:46:32;;;;;;;28.13;13.35;;;7.40;99.90;;;;;;5009539;28;20042;-84
2021/11/21 06:48:58;;;;;;;25.45;11.43;;;7.50;99.90;;;;;;5009343;28;20493;-83
2021/11/21 06:51:24;;;;;;;30.65;14.38;;;7.50;99.90;;;;;;5023833;28;20059;-84
2021/11/21 06:53:49;;;;;;;25.65;11.85;;;7.50;99.90;;;;;;5022651;28;20037;-83
2021/11/21 06:56:16;;;;;;;28.92;14.07;;;7.50;99.90;;;;;;5023827;28;20046;-83
2021/11/21 06:58:41;;;;;;;28.63;13.27;;;7.50;99.90;;;;;;5024510;28;20484;-84
2021/11/21 07:01:07;;;;;;;31.10;12.85;;;7.40;99.90;;;;;;5005372;28;20124;-83
2021/11/21 07:03:32;;;;;;;27.98;13.63;;;7.40;99.90;;;;;;5038485;28;20067;-84
2021/11/21 07:05:58;;;;;;;34.58;15.82;;;7.40;99.90;;;;;;5023182;28;20452;-84
2021/11/21 07:08:23;;;;;;;23.20;10.70;;;7.40;99.90;;;;;;5025519;28;20029;-83
2021/11/21 07:10:49;;;;;;;33.85;14.68;;;7.40;99.90;;;;;;5008298;28;20117;-84
2021/11/21 07:13:15;;;;;;;30.15;15.02;;;7.40;99.90;;;;;;5038701;28;20430;-84
2021/11/21 07:15:40;;;;;;;28.05;12.82;;;7.40;99.90;;;;;;4999488;28;20315;-83
2021/11/21 07:18:09;;;;;;;24.23;11.57;;;7.40;99.90;;;;;;5004561;28;20055;-84
2021/11/21 07:20:35;;;;;;;24.50;13.15;;;7.40;99.90;;;;;;5009079;28;20030;-84
2021/11/21 07:23:01;;;;;;;26.27;12.70;;;7.40;99.90;;;;;;4991375;28;20480;-85
2021/11/21 07:25:26;;;;;;;26.80;13.57;;;7.40;99.90;;;;;;5009084;28;20030;-84
2021/11/21 07:27:52;;;;;;;23.27;12.25;;;7.40;99.90;;;;;;5023873;28;20033;-85
2021/11/21 07:30:19;;;;;;;25.77;12.90;;;7.40;99.90;;;;;;5022766;28;20124;-85
2021/11/21 07:32:45;;;;;;;19.98;11.30;;;7.40;99.90;;;;;;5022677;28;20038;-86
2021/11/21 07:35:11;;;;;;;20.00;11.00;;;7.40;99.90;;;;;;5022738;28;20069;-86
2021/11/21 07:37:37;;;;;;;17.35;9.23;;;7.40;99.90;;;;;;5023996;28;20026;-86
2021/11/21 07:40:03;;;;;;;20.65;9.82;;;7.40;99.90;;;;;;5010750;28;20029;-86
2021/11/21 07:42:29;;;;;;;14.05;6.38;;;7.40;99.90;;;;;;5010244;28;20026;-86
2021/11/21 07:44:54;;;;;;;17.33;8.82;;;7.40;99.90;;;;;;5020252;28;20338;-86
2021/11/21 07:47:21;;;;;;;18.55;10.00;;;7.40;99.90;;;;;;5017533;28;20123;-86
2021/11/21 07:49:46;;;;;;;16.45;8.55;;;7.40;99.90;;;;;;5038484;28;20026;-86
2021/11/21 07:52:12;;;;;;;17.25;8.98;;;7.40;99.90;;;;;;5016436;28;20114;-87
2021/11/21 07:54:38;;;;;;;12.13;5.55;;;7.40;99.90;;;;;;5019488;28;20034;-87
2021/11/21 07:57:04;;;;;;;14.60;7.28;;;7.40;99.90;;;;;;5007703;28;20428;-88
2021/11/21 07:59:29;;;;;;;10.82;5.28;;;7.40;99.90;;;;;;5008353;28;20146;-87
2021/11/21 08:01:55;;;;;;;12.30;7.05;;;7.40;99.90;;;;;;5004916;28;20039;-87
2021/11/21 08:04:20;;;;;;;15.50;8.32;;;7.40;99.90;;;;;;5007720;28;20037;-88
2021/11/21 08:06:46;;;;;;;13.55;8.35;;;7.50;99.90;;;;;;5006553;28;20112;-88
2021/11/21 08:09:13;;;;;;;12.88;7.80;;;7.40;99.90;;;;;;5010167;28;20038;-89
2021/11/21 08:11:40;;;;;;;15.65;8.90;;;7.40;99.90;;;;;;5012995;28;20034;-89
2021/11/21 08:14:06;;;;;;;19.52;9.60;;;7.40;99.90;;;;;;5013075;28;20454;-88
2021/11/21 08:16:36;;;;;;;17.38;9.82;;;7.50;99.90;;;;;;5013231;28;20049;-88
2021/11/21 08:19:02;;;;;;;14.65;8.00;;;7.50;99.90;;;;;;4997446;28;20132;-89
2021/11/21 08:21:28;;;;;;;17.45;9.77;;;7.40;99.90;;;;;;4993241;28;20120;-89
2021/11/21 08:23:53;;;;;;;14.60;9.05;;;7.50;99.90;;;;;;5013077;28;20030;-90
2021/11/21 08:26:19;;;;;;;15.75;8.73;;;7.60;99.90;;;;;;5015886;28;20497;-90
2021/11/21 08:28:45;;;;;;;17.48;10.80;;;7.60;99.90;;;;;;5007883;28;20037;-88
2021/11/21 08:31:10;;;;;;;23.08;10.25;;;7.60;99.90;;;;;;5008590;28;20485;-87
2021/11/21 08:33:36;;;;;;;18.45;10.85;;;7.60;99.90;;;;;;5009655;28;20034;-87
2021/11/21 08:36:01;;;;;;;18.08;10.38;;;7.70;99.90;;;;;;5010389;28;20672;-86
2021/11/21 08:38:27;;;;;;;19.92;11.25;;;7.60;99.90;;;;;;5010513;28;20032;-86
2021/11/21 08:40:53;;;;;;;22.70;11.50;;;7.70;99.90;;;;;;5042797;28;20083;-86
2021/11/21 08:43:18;;;;;;;23.65;13.63;;;7.70;99.90;;;;;;5027094;28;20495;-87
2021/11/21 08:45:45;;;;;;;29.05;14.07;;;7.70;99.90;;;;;;5011098;28;20049;-87
2021/11/21 08:48:14;;;;;;;21.65;13.57;;;7.70;99.90;;;;;;5034577;28;20055;-86
2021/11/21 08:50:40;;;;;;;26.83;13.13;;;7.70;99.90;;;;;;5009819;28;20113;-86
2021/11/21 08:53:05;;;;;;;32.92;17.50;;;7.80;99.90;;;;;;5024666;28;20188;-86
2021/11/21 08:55:33;;;;;;;27.63;15.07;;;7.80;99.90;;;;;;5009761;28;20041;-86
2021/11/21 08:57:59;;;;;;;23.00;12.88;;;7.80;99.90;;;;;;5011300;28;20034;-86
2021/11/21 09:00:24;;;;;;;35.60;17.88;;;7.90;99.90;;;;;;5011499;28;20094;-86
2021/11/21 09:02:51;;;;;;;31.35;15.13;;;7.90;99.90;;;;;;5040460;28;20025;-86
2021/11/21 09:05:16;;;;;;;28.85;16.13;;;7.90;99.90;;;;;;5009935;28;20037;-86
2021/11/21 09:07:43;;;;;;;34.75;17.13;;;8.00;99.90;;;;;;5008745;28;20155;-86
2021/11/21 09:10:20;;;;;;;31.05;16.45;;;8.00;99.90;;;;;;5024246;28;20188;-86
2021/11/21 09:12:51;;;;;;;25.48;14.05;;;8.10;99.90;;;;;;4988052;28;20107;-86
2021/11/21 09:15:21;;;;;;;41.13;20.67;;;8.10;99.90;;;;;;5026820;28;20033;-86
2021/11/21 09:17:50;;;;;;;34.33;17.23;;;8.20;99.90;;;;;;5032423;28;20036;-86
2021/11/21 09:20:18;;;;;;;33.72;17.35;;;8.30;99.90;;;;;;5005613;28;20140;-86
2021/11/21 09:22:43;;;;;;;31.27;16.58;;;8.30;99.90;;;;;;4995943;28;20029;-86
2021/11/21 09:25:09;;;;;;;37.47;18.20;;;8.40;99.90;;;;;;4997401;28;20044;-85
2021/11/21 09:27:35;;;;;;;45.13;20.60;;;8.40;99.90;;;;;;5011271;28;20121;-85
2021/11/21 09:30:04;;;;;;;35.25;17.98;;;8.50;99.90;;;;;;5027248;28;20371;-84
2021/11/21 09:32:30;;;;;;;38.22;14.77;;;8.50;99.90;;;;;;5002208;28;20033;-85
2021/11/21 09:34:55;;;;;;;34.75;17.75;;;8.50;99.90;;;;;;5026609;28;20087;-85
2021/11/21 09:37:21;;;;;;;35.53;15.68;;;8.60;99.90;;;;;;5020022;28;20056;-85
2021/11/21 09:39:46;;;;;;;35.97;18.83;;;8.60;99.90;;;;;;5011238;28;20045;-85
2021/11/21 09:42:13;;;;;;;28.17;14.85;;;8.60;99.90;;;;;;5005598;28;20037;-84
2021/11/21 09:44:39;;;;;;;59.30;21.77;;;8.70;99.90;;;;;;5017440;28;20037;-86
2021/11/21 09:47:04;;;;;;;45.28;20.27;;;8.80;99.90;;;;;;5010193;28;20028;-86
2021/11/21 09:49:30;;;;;;;37.55;18.42;;;8.80;99.90;;;;;;5019831;28;20527;-86
2021/11/21 09:51:56;;;;;;;39.45;19.23;;;8.80;99.90;;;;;;5025654;28;20034;-85
2021/11/21 09:54:26;;;;;;;55.88;22.80;;;8.90;99.90;;;;;;5010217;28;20033;-85
2021/11/21 09:56:52;;;;;;;40.72;20.17;;;9.00;99.90;;;;;;5006871;28;20034;-85
2021/11/21 10:00:09;;;;;;;42.08;19.63;;;9.00;99.90;;;;;;5024759;28;20038;-85
2021/11/21 10:02:37;;;;;;;41.42;21.60;;;9.00;99.90;;;;;;5002280;28;20037;-86
2021/11/21 10:05:05;;;;;;;50.72;22.35;;;9.00;99.90;;;;;;5010498;28;20033;-84
2021/11/21 10:07:34;;;;;;;43.17;20.75;;;9.10;99.90;;;;;;4997183;28;20056;-86
2021/11/21 10:10:01;;;;;;;41.38;21.48;;;9.20;99.90;;;;;;5029873;28;20496;-86
2021/11/21 10:12:34;;;;;;;42.63;21.52;;;9.20;99.90;;;;;;5031318;28;20025;-86
2021/11/21 10:15:14;;;;;;;33.72;17.90;;;9.30;99.90;;;;;;5015534;28;20034;-87
2021/11/21 10:17:41;;;;;;;44.20;22.15;;;9.40;99.90;;;;;;5039892;28;20556;-87
2021/11/21 10:20:11;;;;;;;35.08;19.27;;;9.40;99.90;;;;;;5016887;28;20390;-87
2021/11/21 10:23:09;;;;;;;42.58;20.92;;;9.50;99.90;;;;;;5014716;28;20026;-88
2021/11/21 10:25:43;;;;;;;38.38;20.00;;;9.60;99.90;;;;;;5024856;28;20025;-89
2021/11/21 10:28:18;;;;;;;42.20;20.35;;;9.50;99.90;;;;;;5025930;28;20034;-88
2021/11/21 10:30:57;;;;;;;35.13;19.35;;;9.60;99.90;;;;;;5000564;28;20034;-88
2021/11/21 10:33:27;;;;;;;43.58;20.50;;;9.70;99.90;;;;;;4989123;28;20034;-89
2021/11/21 10:36:00;;;;;;;35.50;17.67;;;9.70;99.90;;;;;;4981885;28;20112;-88
2021/11/21 10:38:39;;;;;;;36.03;18.80;;;9.70;99.90;;;;;;4987026;28;20037;-88
2021/11/21 10:41:07;;;;;;;38.20;16.98;;;9.80;99.90;;;;;;5002925;28;20104;-89
2021/11/21 10:43:40;;;;;;;28.88;15.43;;;9.70;99.90;;;;;;4982503;28;20038;-86
2021/11/21 10:46:05;;;;;;;30.00;16.25;;;9.70;99.90;;;;;;4995222;28;23024;-86
2021/11/21 10:48:31;;;;;;;32.90;15.55;;;9.70;99.90;;;;;;4987130;28;20074;-86
2021/11/21 10:50:58;;;;;;;36.35;17.25;;;9.70;99.90;;;;;;4980726;28;20038;-86
2021/11/21 10:53:23;;;;;;;40.70;22.02;;;9.70;99.90;;;;;;5007281;28;20087;-86
2021/11/21 10:56:08;;;;;;;37.20;17.55;;;9.70;99.90;;;;;;5000021;28;20038;-86
2021/11/21 10:58:43;;;;;;;36.00;17.85;;;9.70;99.90;;;;;;5002417;28;20044;-86
2021/11/21 11:01:14;;;;;;;33.63;16.10;;;9.70;99.90;;;;;;4992981;28;20034;-86
2021/11/21 11:03:40;;;;;;;35.03;17.45;;;9.60;99.90;;;;;;5008691;28;20037;-86
2021/11/21 11:06:26;;;;;;;32.65;15.80;;;9.60;99.90;;;;;;5008501;28;20033;-86
2021/11/21 11:08:51;;;;;;;33.13;15.55;;;9.60;99.90;;;;;;5024566;28;20531;-87
2021/11/21 11:11:18;;;;;;;42.78;17.67;;;9.50;99.90;;;;;;5018421;28;20037;-86
2021/11/21 11:13:43;;;;;;;33.55;14.45;;;9.50;99.90;;;;;;5033966;28;20508;-86
2021/11/21 11:16:09;;;;;;;30.15;13.75;;;9.50;99.90;;;;;;5008318;28;20053;-86
2021/11/21 11:18:38;;;;;;;25.50;14.23;;;9.50;99.90;;;;;;4988352;28;20386;-86
2021/11/21 11:21:10;;;;;;;22.70;12.57;;;9.40;99.90;;;;;;4973876;28;20030;-87
2021/11/21 11:23:38;;;;;;;23.27;12.05;;;9.40;99.90;;;;;;4977014;28;20037;-87
2021/11/21 11:26:14;;;;;;;25.67;13.40;;;9.40;99.90;;;;;;5018423;28;20041;-87
2021/11/21 11:28:44;;;;;;;29.80;11.48;;;9.40;99.90;;;;;;5004195;28;20474;-87
2021/11/21 11:31:36;;;;;;;25.08;10.00;;;9.40;99.90;;;;;;4985846;28;20033;-87
2021/11/21 11:34:03;;;;;;;23.88;11.27;;;9.30;99.90;;;;;;5019736;28;20450;-87
2021/11/21 11:36:33;;;;;;;26.23;11.30;;;9.40;99.90;;;;;;4986416;28;20120;-87
2021/11/21 11:39:09;;;;;;;18.83;9.15;;;9.40;99.90;;;;;;5006408;28;20095;-87
2021/11/21 11:41:35;;;;;;;21.30;9.52;;;9.40;99.90;;;;;;4985327;28;20034;-87
2021/11/21 11:44:09;;;;;;;22.75;9.45;;;9.40;99.90;;;;;;5004013;28;20090;-86
2021/11/21 11:46:35;;;;;;;15.18;8.27;;;9.50;99.90;;;;;;4988682;28;20057;-86
2021/11/21 11:49:11;;;;;;;34.15;7.88;;;9.40;99.90;;;;;;5008050;28;20437;-86
2021/11/21 11:51:37;;;;;;;19.35;8.27;;;9.50;99.90;;;;;;4993442;28;20030;-86
2021/11/21 11:54:15;;;;;;;16.40;7.68;;;9.50;99.90;;;;;;5025142;28;20107;-86
2021/11/21 11:56:56;;;;;;;22.70;7.25;;;9.50;99.90;;;;;;5024027;28;20477;-86
2021/11/21 11:59:41;;;;;;;18.05;7.30;;;9.60;99.90;;;;;;4994349;28;20037;-86
2021/11/21 12:02:08;;;;;;;24.40;7.30;;;9.60;99.90;;;;;;5019948;28;20049;-86
2021/11/21 12:04:33;;;;;;;12.95;5.68;;;9.60;99.90;;;;;;5009503;28;20279;-87
2021/11/21 12:07:07;;;;;;;16.65;5.13;;;9.60;99.90;;;;;;5021690;28;20037;-86
2021/11/21 12:09:33;;;;;;;12.70;4.95;;;9.60;99.90;;;;;;4990484;28;20041;-87
2021/11/21 12:12:03;;;;;;;19.38;5.22;;;9.60;99.90;;;;;;5012877;28;20056;-86
2021/11/21 12:14:32;;;;;;;16.05;4.93;;;9.70;99.90;;;;;;5013360;28;20460;-86
2021/11/21 12:17:02;;;;;;;16.05;4.28;;;9.70;99.90;;;;;;5013611;28;20122;-86
2021/11/21 12:19:48;;;;;;;15.05;5.63;;;9.70;99.90;;;;;;5009988;28;20037;-85
2021/11/21 12:22:34;;;;;;;25.05;4.80;;;9.80;99.90;;;;;;5014655;28;20037;-86
2021/11/21 12:25:10;;;;;;;19.38;4.25;;;9.80;99.90;;;;;;5018626;28;20053;-86
2021/11/21 12:27:39;;;;;;;;;;;9.80;99.90;;;;;;4996306;28;20030;-86
2021/11/21 12:30:15;;;;;;;13.38;3.80;;;9.70;99.90;;;;;;5025782;28;19917;-86
2021/11/21 12:32:48;;;;;;;12.65;3.55;;;9.70;99.90;;;;;;4319032;28;9999699;-86
2021/11/21 12:35:39;;;;;;;8.48;3.17;;;9.70;99.90;;;;;;5009372;28;20037;-89
2021/11/21 12:38:19;;;;;;;15.23;3.67;;;9.70;99.90;;;;;;5012472;28;20513;-88
2021/11/21 12:40:46;;;;;;;12.15;4.90;;;9.60;99.90;;;;;;5029067;28;20029;-87